createdAt,value
2023-01-20T00:01:36.086Z,31.65
2023-01-20T00:04:03.354Z,31.42
2023-01-20T00:06:29.971Z,30.52
2023-01-20T00:09:00.569Z,29.23
2023-01-20T00:11:28.289Z,29.17
2023-01-20T00:13:56.795Z,31.25
2023-01-20T00:16:24.584Z,30.35
2023-01-20T00:18:51.642Z,29.77
2023-01-20T00:21:18.735Z,31.02
2023-01-20T00:23:46.568Z,29.40
2023-01-20T00:26:19.092Z,29.48
2023-01-20T00:28:46.509Z,30.70
2023-01-20T00:31:22.421Z,29.90
2023-01-20T00:33:50.803Z,29.42
2023-01-20T00:36:19.222Z,28.55
2023-01-20T00:38:47.130Z,28.95
2023-01-20T00:41:13.605Z,28.20
2023-01-20T00:43:40.613Z,27.75
2023-01-20T00:46:08.046Z,29.02
2023-01-20T00:48:35.221Z,27.75
2023-01-20T00:51:02.394Z,28.50
2023-01-20T00:53:29.115Z,28.65
2023-01-20T00:55:55.575Z,28.85
2023-01-20T00:58:22.460Z,28.48
2023-01-20T01:00:50.674Z,29.42
2023-01-20T01:03:17.623Z,29.27
2023-01-20T01:05:44.587Z,29.33
2023-01-20T01:08:11.770Z,29.08
2023-01-20T01:10:38.478Z,30.67
2023-01-20T01:13:05.598Z,28.25
2023-01-20T01:15:32.621Z,29.48
2023-01-20T01:17:59.993Z,29.58
2023-01-20T01:20:28.027Z,28.00
2023-01-20T01:22:55.150Z,28.88
2023-01-20T01:25:21.758Z,29.42
2023-01-20T01:27:48.270Z,29.73
2023-01-20T01:30:14.802Z,27.77
2023-01-20T01:32:41.269Z,27.88
2023-01-20T01:35:08.064Z,29.38
2023-01-20T01:37:35.031Z,30.65
2023-01-20T01:40:01.467Z,29.27
2023-01-20T01:42:28.485Z,30.60
2023-01-20T01:45:10.510Z,28.52
2023-01-20T01:47:40.137Z,29.83
2023-01-20T01:50:09.013Z,31.25
2023-01-20T01:52:35.667Z,30.10
2023-01-20T01:55:03.144Z,30.08
2023-01-20T01:57:31.835Z,29.70
2023-01-20T01:59:58.331Z,31.55
2023-01-20T02:02:25.000Z,31.73
2023-01-20T02:04:51.621Z,32.55
2023-01-20T02:07:20.739Z,33.15
2023-01-20T02:09:47.254Z,32.38
2023-01-20T02:12:17.416Z,33.97
2023-01-20T02:14:47.355Z,34.63
2023-01-20T02:17:46.178Z,35.28
2023-01-20T02:20:34.746Z,35.53
2023-01-20T02:23:13.296Z,37.28
2023-01-20T02:26:17.512Z,37.60
2023-01-20T02:28:52.950Z,38.60
2023-01-20T02:31:47.410Z,35.95
2023-01-20T02:34:27.144Z,33.80
2023-01-20T02:36:58.626Z,30.95
2023-01-20T02:39:48.639Z,30.88
2023-01-20T02:42:23.372Z,30.73
2023-01-20T02:44:59.297Z,31.15
2023-01-20T02:47:34.887Z,31.13
2023-01-20T02:50:16.030Z,30.60
2023-01-20T02:52:45.836Z,31.10
2023-01-20T02:55:19.581Z,31.55
2023-01-20T02:57:54.515Z,31.63
2023-01-20T03:00:25.579Z,33.55
2023-01-20T03:02:54.077Z,32.00
2023-01-20T03:05:33.114Z,32.28
2023-01-20T03:08:02.837Z,33.13
2023-01-20T03:10:32.531Z,31.92
2023-01-20T03:13:15.449Z,32.53
2023-01-20T03:16:07.646Z,32.05
2023-01-20T03:18:35.201Z,32.35
2023-01-20T03:21:04.013Z,32.10
2023-01-20T03:23:35.999Z,31.40
2023-01-20T03:26:07.341Z,29.33
2023-01-20T03:28:34.709Z,29.90
2023-01-20T03:31:06.089Z,27.63
2023-01-20T03:33:33.309Z,28.10
2023-01-20T03:35:59.760Z,29.10
2023-01-20T03:38:26.301Z,28.42
2023-01-20T03:41:10.746Z,28.23
2023-01-20T03:43:42.670Z,28.20
2023-01-20T03:46:20.103Z,28.17
2023-01-20T03:49:16.174Z,27.08
2023-01-20T03:52:00.426Z,28.15
2023-01-20T03:54:35.102Z,28.70
2023-01-20T03:57:08.303Z,27.00
2023-01-20T03:59:38.730Z,27.77
2023-01-20T04:02:07.922Z,26.30
2023-01-20T04:04:37.956Z,26.20
2023-01-20T04:07:06.881Z,27.88
2023-01-20T04:09:38.946Z,26.70
2023-01-20T04:12:05.598Z,28.92
2023-01-20T04:14:32.275Z,26.05
2023-01-20T04:16:59.238Z,25.55
2023-01-20T04:19:26.652Z,26.20
2023-01-20T04:22:12.516Z,25.73
2023-01-20T04:24:51.155Z,25.10
2023-01-20T04:27:17.614Z,25.33
2023-01-20T04:29:44.257Z,22.95
2023-01-20T04:32:12.085Z,22.90
2023-01-20T04:34:38.870Z,23.98
2023-01-20T04:37:05.431Z,24.20
2023-01-20T04:39:31.856Z,23.20
2023-01-20T04:41:58.442Z,25.23
2023-01-20T04:44:25.035Z,24.52
2023-01-20T04:46:55.710Z,26.08
2023-01-20T04:49:22.345Z,25.50
2023-01-20T04:51:48.872Z,24.50
2023-01-20T04:54:15.316Z,23.58
2023-01-20T04:56:41.801Z,24.73
2023-01-20T04:59:08.414Z,26.63
2023-01-20T05:01:34.995Z,25.60
2023-01-20T05:04:01.705Z,24.70
2023-01-20T05:06:28.226Z,25.15
2023-01-20T05:08:54.706Z,24.90
2023-01-20T05:11:21.192Z,25.00
2023-01-20T05:13:47.659Z,26.17
2023-01-20T05:16:14.240Z,24.58
2023-01-20T05:18:41.064Z,26.55
2023-01-20T05:21:08.730Z,24.70
2023-01-20T05:23:35.401Z,25.35
2023-01-20T05:26:01.875Z,24.63
2023-01-20T05:28:28.342Z,25.73
2023-01-20T05:30:55.044Z,24.92
2023-01-20T05:33:21.607Z,27.08
2023-01-20T05:35:48.032Z,25.85
2023-01-20T05:38:14.555Z,27.73
2023-01-20T05:40:41.123Z,27.15
2023-01-20T05:43:07.561Z,25.27
2023-01-20T05:45:33.995Z,28.35
2023-01-20T05:48:00.889Z,25.00
2023-01-20T05:50:28.556Z,25.15
2023-01-20T05:52:54.975Z,28.80
2023-01-20T05:55:21.446Z,26.17
2023-01-20T05:57:47.937Z,27.17
2023-01-20T06:00:14.892Z,27.92
2023-01-20T06:02:41.981Z,26.80
2023-01-20T06:05:08.751Z,26.38
2023-01-20T06:07:35.189Z,25.80
2023-01-20T06:10:02.469Z,25.10
2023-01-20T06:12:28.899Z,24.67
2023-01-20T06:14:55.354Z,25.08
2023-01-20T06:17:21.853Z,24.30
2023-01-20T06:19:48.306Z,23.17
2023-01-20T06:22:15.438Z,22.48
2023-01-20T06:24:41.990Z,23.02
2023-01-20T06:27:09.609Z,22.55
2023-01-20T06:29:36.403Z,22.75
2023-01-20T06:32:03.097Z,24.00
2023-01-20T06:34:29.534Z,25.48
2023-01-20T06:36:56.639Z,24.77
2023-01-20T06:39:23.092Z,25.35
2023-01-20T06:41:49.493Z,26.02
2023-01-20T06:44:16.733Z,26.55
2023-01-20T06:46:43.448Z,28.02
2023-01-20T06:49:09.973Z,27.23
2023-01-20T06:51:36.403Z,28.23
2023-01-20T06:54:02.904Z,26.60
2023-01-20T06:56:29.393Z,27.52
2023-01-20T06:58:56.078Z,27.33
2023-01-20T07:01:26.834Z,25.90
2023-01-20T07:03:54.229Z,25.45
2023-01-20T07:06:39.596Z,26.50
2023-01-20T07:09:09.102Z,26.00
2023-01-20T07:11:35.848Z,24.52
2023-01-20T07:14:03.550Z,25.67
2023-01-20T07:16:30.143Z,22.17
2023-01-20T07:18:57.189Z,21.35
2023-01-20T07:21:26.247Z,22.15
2023-01-20T07:23:53.079Z,22.67
2023-01-20T07:26:22.027Z,21.95
2023-01-20T07:28:48.860Z,23.30
2023-01-20T07:31:18.488Z,23.33
2023-01-20T07:33:45.230Z,22.23
2023-01-20T07:36:13.279Z,23.45
2023-01-20T07:38:40.002Z,22.25
2023-01-20T07:41:11.571Z,23.55
2023-01-20T07:43:38.387Z,23.65
2023-01-20T07:46:05.430Z,29.63
2023-01-20T07:48:33.217Z,30.40
2023-01-20T07:51:03.033Z,26.40
2023-01-20T07:53:30.409Z,27.73
2023-01-20T07:55:59.843Z,27.08
2023-01-20T07:58:26.272Z,25.55
2023-01-20T08:00:53.386Z,23.42
2023-01-20T08:03:19.880Z,26.90
2023-01-20T08:05:46.303Z,24.38
2023-01-20T08:08:12.738Z,24.27
2023-01-20T08:10:39.374Z,24.30
2023-01-20T08:13:05.903Z,25.58
2023-01-20T08:15:32.300Z,23.60
2023-01-20T08:17:59.593Z,26.75
2023-01-20T08:20:26.121Z,24.98
2023-01-20T08:22:53.137Z,23.80
2023-01-20T08:25:19.550Z,22.20
2023-01-20T08:27:48.110Z,22.55
2023-01-20T08:30:14.793Z,23.00
2023-01-20T08:32:41.344Z,21.10
2023-01-20T08:35:08.134Z,21.88
2023-01-20T08:37:36.978Z,21.10
2023-01-20T08:40:06.721Z,21.13
2023-01-20T08:42:33.169Z,21.55
2023-01-20T08:44:59.691Z,21.73
2023-01-20T08:47:26.395Z,22.52
2023-01-20T08:49:54.005Z,21.10
2023-01-20T08:52:20.486Z,21.98
2023-01-20T08:54:46.887Z,22.10
2023-01-20T08:57:14.931Z,21.25
2023-01-20T08:59:41.376Z,21.70
2023-01-20T09:02:10.523Z,22.35
2023-01-20T09:04:37.914Z,23.42
2023-01-20T09:07:05.293Z,21.67
2023-01-20T09:09:32.167Z,20.77
2023-01-20T09:11:58.625Z,20.17
2023-01-20T09:14:25.641Z,20.70
2023-01-20T09:16:52.150Z,21.38
2023-01-20T09:19:18.677Z,20.85
2023-01-20T09:21:45.206Z,22.20
2023-01-20T09:24:11.794Z,20.08
2023-01-20T09:26:38.494Z,22.08
2023-01-20T09:29:10.409Z,20.95
2023-01-20T09:31:52.167Z,21.40
2023-01-20T09:34:24.015Z,21.95
2023-01-20T09:36:52.389Z,29.13
2023-01-20T09:39:37.716Z,23.30
2023-01-20T09:42:43.337Z,22.42
2023-01-20T09:45:28.138Z,34.47
2023-01-20T09:48:42.027Z,23.88
2023-01-20T09:51:37.699Z,35.65
2023-01-20T09:54:14.472Z,24.02
2023-01-20T09:56:46.573Z,22.95
2023-01-20T09:59:24.840Z,22.48
2023-01-20T10:01:56.812Z,23.05
2023-01-20T10:04:39.662Z,21.40
2023-01-20T10:07:15.199Z,22.58
2023-01-20T10:09:49.957Z,22.33
2023-01-20T10:12:23.016Z,21.40
2023-01-20T10:14:55.516Z,21.77
2023-01-20T10:17:29.103Z,19.92
2023-01-20T10:20:07.130Z,21.65
2023-01-20T10:22:36.533Z,21.35
2023-01-20T10:25:12.236Z,21.33
2023-01-20T10:27:50.091Z,20.65
2023-01-20T10:30:17.920Z,21.70
2023-01-20T10:32:53.868Z,21.85
2023-01-20T10:35:26.836Z,20.23
2023-01-20T10:37:55.631Z,19.60
2023-01-20T10:40:40.632Z,20.33
2023-01-20T10:43:16.099Z,20.55
2023-01-20T10:46:01.215Z,19.70
2023-01-20T10:48:40.167Z,19.20
2023-01-20T10:51:18.298Z,18.85
2023-01-20T10:53:44.705Z,18.23
2023-01-20T10:56:42.743Z,18.85
2023-01-20T10:59:17.827Z,18.48
2023-01-20T11:01:56.258Z,17.65
2023-01-20T11:04:26.129Z,17.27
2023-01-20T11:06:56.206Z,17.83
2023-01-20T11:09:32.588Z,17.20
2023-01-20T11:12:00.556Z,16.65
2023-01-20T11:14:27.138Z,16.73
2023-01-20T11:17:01.921Z,16.60
2023-01-20T11:20:07.665Z,15.80
2023-01-20T11:22:37.426Z,15.68
2023-01-20T11:25:05.659Z,15.15
2023-01-20T11:27:45.774Z,15.02
2023-01-20T11:30:30.985Z,14.02
2023-01-20T11:33:18.943Z,16.67
2023-01-20T11:35:58.595Z,14.05
2023-01-20T11:38:28.609Z,13.02
2023-01-20T11:40:57.311Z,13.45
2023-01-20T11:43:33.907Z,13.05
2023-01-20T11:46:13.078Z,13.18
2023-01-20T11:48:39.581Z,13.15
2023-01-20T11:51:20.805Z,16.65
2023-01-20T11:53:47.653Z,14.23
2023-01-20T11:56:21.305Z,14.57
2023-01-20T11:58:58.445Z,14.25
2023-01-20T12:01:27.907Z,13.13
2023-01-20T12:04:11.765Z,13.23
2023-01-20T12:07:04.667Z,12.05
2023-01-20T12:09:38.392Z,11.90
2023-01-20T12:12:12.936Z,12.40
2023-01-20T12:14:48.340Z,10.32
2023-01-20T12:17:29.755Z,10.73
2023-01-20T12:20:19.748Z,12.07
2023-01-20T12:23:01.484Z,10.00
2023-01-20T12:25:36.942Z,9.40
2023-01-20T12:28:12.493Z,9.18
2023-01-20T12:30:47.511Z,9.07
2023-01-20T12:33:20.799Z,8.30
2023-01-20T12:36:03.231Z,7.80
2023-01-20T12:38:48.144Z,9.07
2023-01-20T12:41:28.521Z,8.63
2023-01-20T12:44:09.604Z,8.57
2023-01-20T12:46:46.208Z,8.90
2023-01-20T12:49:26.359Z,8.68
2023-01-20T12:52:17.968Z,9.15
2023-01-20T12:55:15.500Z,9.63
2023-01-20T12:58:08.450Z,9.70
2023-01-20T13:01:04.350Z,10.07
2023-01-20T13:03:52.678Z,10.98
2023-01-20T13:06:37.396Z,10.18
2023-01-20T13:09:18.862Z,11.05
2023-01-20T13:12:12.163Z,10.52
2023-01-20T13:14:58.861Z,10.85
2023-01-20T13:17:40.304Z,9.50
2023-01-20T13:20:22.194Z,7.97
2023-01-20T13:22:50.402Z,8.93
2023-01-20T13:25:18.944Z,8.40
2023-01-20T13:27:47.774Z,8.55
2023-01-20T13:30:37.025Z,8.38
2023-01-20T13:33:08.635Z,10.23
2023-01-20T13:35:49.674Z,10.38
2023-01-20T13:38:35.902Z,13.02
2023-01-20T13:41:05.943Z,9.65
2023-01-20T13:43:45.681Z,9.70
2023-01-20T13:46:13.555Z,9.88
2023-01-20T13:49:04.296Z,10.25
2023-01-20T13:51:36.748Z,9.45
2023-01-20T13:54:25.024Z,9.87
2023-01-20T13:56:52.494Z,10.25
2023-01-20T13:59:18.973Z,10.15
2023-01-20T14:01:45.473Z,9.82
2023-01-20T14:04:19.623Z,9.50
2023-01-20T14:06:52.521Z,9.35
2023-01-20T14:09:24.430Z,9.20
2023-01-20T14:11:52.810Z,9.43
2023-01-20T14:14:24.645Z,10.38
2023-01-20T14:16:52.036Z,9.10
2023-01-20T14:19:29.809Z,8.95
2023-01-20T14:21:59.170Z,8.93
2023-01-20T14:24:45.626Z,8.20
2023-01-20T14:27:23.958Z,7.78
2023-01-20T14:29:52.811Z,8.43
2023-01-20T14:32:25.428Z,12.35
2023-01-20T14:34:56.020Z,14.73
2023-01-20T14:37:22.383Z,10.50
2023-01-20T14:39:50.280Z,10.23
2023-01-20T14:42:22.319Z,10.95
2023-01-20T14:44:51.068Z,10.18
2023-01-20T14:47:19.250Z,11.02
2023-01-20T14:49:48.011Z,9.85
2023-01-20T14:52:28.450Z,10.25
2023-01-20T14:54:56.411Z,9.43
2023-01-20T14:57:30.820Z,10.07
2023-01-20T15:00:20.625Z,10.18
2023-01-20T15:03:09.978Z,10.00
2023-01-20T15:05:41.060Z,12.13
2023-01-20T15:08:18.835Z,10.93
2023-01-20T15:10:45.905Z,11.35
2023-01-20T15:13:27.260Z,12.40
2023-01-20T15:16:12.693Z,10.52
2023-01-20T15:18:40.150Z,9.55
2023-01-20T15:21:25.373Z,10.38
2023-01-20T15:23:52.715Z,10.73
2023-01-20T15:26:30.334Z,9.93
2023-01-20T15:28:58.254Z,10.30
2023-01-20T15:31:25.158Z,10.35
2023-01-20T15:33:51.661Z,10.80
2023-01-20T15:36:28.420Z,9.27
2023-01-20T15:38:55.482Z,9.07
2023-01-20T15:41:22.335Z,10.35
2023-01-20T15:43:51.099Z,8.63
2023-01-20T15:46:18.593Z,10.38
2023-01-20T15:48:45.633Z,9.35
2023-01-20T15:51:14.717Z,8.93
2023-01-20T15:53:41.447Z,7.88
2023-01-20T15:56:26.319Z,8.35
2023-01-20T15:58:52.837Z,7.97
2023-01-20T16:01:24.185Z,8.93
2023-01-20T16:03:51.900Z,7.97
2023-01-20T16:06:20.461Z,8.30
2023-01-20T16:08:49.836Z,8.25
2023-01-20T16:11:17.959Z,7.43
2023-01-20T16:13:45.095Z,8.45
2023-01-20T16:16:15.007Z,8.05
2023-01-20T16:18:41.792Z,7.93
2023-01-20T16:21:11.550Z,7.60
2023-01-20T16:23:38.397Z,8.15
2023-01-20T16:26:25.047Z,8.15
2023-01-20T16:28:53.195Z,9.02
2023-01-20T16:31:20.641Z,9.57
2023-01-20T16:33:47.175Z,9.38
2023-01-20T16:36:17.134Z,10.15
2023-01-20T16:38:44.192Z,10.65
2023-01-20T16:41:15.348Z,11.15
2023-01-20T16:43:42.035Z,11.40
2023-01-20T16:46:21.480Z,11.07
2023-01-20T16:48:48.392Z,11.80
2023-01-20T16:51:17.402Z,11.27
2023-01-20T16:53:43.924Z,10.93
2023-01-20T16:56:18.941Z,10.90
2023-01-20T16:58:49.937Z,10.52
2023-01-20T17:01:21.074Z,10.07
2023-01-20T17:03:47.976Z,10.10
2023-01-20T17:06:18.116Z,10.40
2023-01-20T17:08:50.254Z,10.02
2023-01-20T17:11:28.864Z,10.75
2023-01-20T17:13:56.072Z,10.93
2023-01-20T17:16:23.741Z,9.88
2023-01-20T17:18:51.915Z,11.27
2023-01-20T17:21:20.518Z,10.85
2023-01-20T17:23:55.433Z,10.88
2023-01-20T17:26:22.585Z,10.40
2023-01-20T17:28:53.553Z,10.98
2023-01-20T17:31:20.091Z,10.57
2023-01-20T17:33:47.117Z,12.50
2023-01-20T17:36:13.869Z,11.05
2023-01-20T17:38:40.285Z,11.90
2023-01-20T17:41:07.960Z,11.13
2023-01-20T17:43:37.134Z,11.50
2023-01-20T17:46:24.308Z,12.88
2023-01-20T17:48:51.404Z,11.90
2023-01-20T17:51:20.885Z,10.80
2023-01-20T17:53:48.131Z,11.90
2023-01-20T17:56:15.817Z,13.38
2023-01-20T17:58:43.917Z,13.50
2023-01-20T18:01:18.788Z,13.43
2023-01-20T18:03:46.900Z,12.77
2023-01-20T18:06:15.674Z,14.20
2023-01-20T18:08:42.896Z,14.43
2023-01-20T18:11:21.768Z,14.75
2023-01-20T18:13:55.058Z,14.55
2023-01-20T18:16:25.015Z,13.63
2023-01-20T18:18:51.535Z,12.65
2023-01-20T18:21:20.379Z,13.73
2023-01-20T18:23:48.406Z,14.65
2023-01-20T18:26:17.255Z,14.35
2023-01-20T18:28:44.243Z,14.13
2023-01-20T18:31:14.162Z,14.13
2023-01-20T18:33:47.394Z,13.98
2023-01-20T18:38:45.359Z,14.05
2023-01-20T18:41:13.949Z,14.80
2023-01-20T18:43:41.508Z,14.82
2023-01-20T18:46:09.487Z,15.02
2023-01-20T18:48:40.785Z,14.32
2023-01-20T18:51:10.449Z,14.45
2023-01-20T18:53:38.058Z,15.13
2023-01-20T18:56:08.506Z,13.80
2023-01-20T18:58:36.161Z,14.43
2023-01-20T19:01:14.485Z,14.75
2023-01-20T19:03:41.434Z,13.82
2023-01-20T19:06:07.986Z,14.80
2023-01-20T19:08:34.660Z,15.38
2023-01-20T19:11:03.178Z,14.68
2023-01-20T19:13:30.307Z,16.23
2023-01-20T19:15:57.669Z,16.08
2023-01-20T19:18:24.467Z,15.63
2023-01-20T19:20:51.298Z,15.82
2023-01-20T19:23:17.824Z,15.95
2023-01-20T19:25:44.394Z,17.13
2023-01-20T19:28:12.106Z,17.83
2023-01-20T19:30:38.601Z,18.10
2023-01-20T19:33:05.419Z,18.45
2023-01-20T19:35:33.513Z,18.35
2023-01-20T19:38:00.045Z,18.30
2023-01-20T19:40:26.558Z,18.70
2023-01-20T19:42:53.065Z,18.73
2023-01-20T19:45:19.491Z,18.38
2023-01-20T19:47:46.333Z,18.85
2023-01-20T19:50:12.783Z,18.15
2023-01-20T19:52:39.231Z,18.42
2023-01-20T19:55:05.952Z,19.02
2023-01-20T19:57:32.385Z,18.60
2023-01-20T19:59:59.189Z,19.30
2023-01-20T20:02:27.402Z,19.77
2023-01-20T20:04:53.952Z,18.80
2023-01-20T20:07:20.412Z,19.50
2023-01-20T20:09:46.953Z,19.90
2023-01-20T20:12:13.515Z,20.02
2023-01-20T20:14:40.091Z,20.50
2023-01-20T20:17:06.496Z,20.10
2023-01-20T20:19:32.948Z,19.80
2023-01-20T20:21:59.664Z,18.77
2023-01-20T20:24:26.108Z,20.98
2023-01-20T20:26:52.621Z,19.95
2023-01-20T20:29:19.429Z,19.77
2023-01-20T20:31:46.819Z,19.33
2023-01-20T20:34:16.191Z,19.60
2023-01-20T20:36:43.026Z,19.52
2023-01-20T20:39:13.670Z,19.48
2023-01-20T20:41:40.286Z,20.60
2023-01-20T20:44:06.978Z,19.15
2023-01-20T20:46:33.557Z,20.02
2023-01-20T20:49:01.242Z,19.45
2023-01-20T20:51:33.533Z,21.38
2023-01-20T20:54:02.624Z,20.35
2023-01-20T20:56:33.003Z,20.27
2023-01-20T20:59:02.860Z,21.35
2023-01-20T21:01:32.779Z,21.30
2023-01-20T21:04:00.373Z,22.10
2023-01-20T21:06:27.073Z,23.08
2023-01-20T21:08:53.560Z,23.90
2023-01-20T21:11:20.711Z,23.67
2023-01-20T21:13:49.201Z,22.20
2023-01-20T21:16:20.677Z,23.13
2023-01-20T21:18:47.839Z,21.85
2023-01-20T21:21:16.980Z,23.95
2023-01-20T21:23:47.920Z,24.02
2023-01-20T21:26:14.393Z,25.00
2023-01-20T21:28:42.607Z,25.90
2023-01-20T21:31:10.987Z,25.40
2023-01-20T21:33:38.925Z,24.80
2023-01-20T21:36:07.206Z,23.55
2023-01-20T21:38:33.623Z,24.48
2023-01-20T21:41:09.784Z,24.35
2023-01-20T21:44:00.011Z,24.30
2023-01-20T21:46:32.724Z,25.42
2023-01-20T21:49:18.350Z,26.05
2023-01-20T21:52:03.397Z,25.27
2023-01-20T21:54:31.233Z,25.15
2023-01-20T21:56:58.917Z,24.30
2023-01-20T21:59:25.926Z,25.88
2023-01-20T22:01:53.075Z,28.08
2023-01-20T22:04:19.854Z,26.17
2023-01-20T22:06:46.327Z,27.58
2023-01-20T22:09:12.820Z,26.88
2023-01-20T22:11:39.271Z,26.98
2023-01-20T22:14:06.081Z,26.73
2023-01-20T22:16:32.618Z,27.58
2023-01-20T22:18:59.215Z,27.20
2023-01-20T22:21:26.270Z,27.17
2023-01-20T22:23:53.603Z,25.55
2023-01-20T22:26:20.580Z,28.63
2023-01-20T22:28:47.034Z,28.67
2023-01-20T22:31:23.793Z,29.45
2023-01-20T22:33:54.803Z,28.42
2023-01-20T22:36:22.779Z,29.83
2023-01-20T22:38:50.960Z,27.55
2023-01-20T22:41:18.560Z,28.75
2023-01-20T22:43:45.270Z,28.30
2023-01-20T22:46:13.709Z,27.55
2023-01-20T22:48:41.230Z,27.30
2023-01-20T22:51:10.606Z,29.60
2023-01-20T22:53:39.098Z,28.15
2023-01-20T22:56:14.844Z,27.65
2023-01-20T22:58:43.359Z,26.80
2023-01-20T23:01:18.901Z,26.15
2023-01-20T23:03:46.205Z,25.58
2023-01-20T23:06:14.084Z,26.73
2023-01-20T23:08:41.151Z,26.92
2023-01-20T23:11:11.258Z,25.50
2023-01-20T23:13:40.836Z,27.38
2023-01-20T23:16:10.423Z,25.88
2023-01-20T23:18:36.825Z,27.45
2023-01-20T23:21:05.758Z,27.85
2023-01-20T23:23:33.067Z,26.70
2023-01-20T23:26:04.040Z,27.25
2023-01-20T23:28:30.831Z,27.10
2023-01-20T23:31:05.671Z,27.25
2023-01-20T23:33:33.025Z,26.80
2023-01-20T23:36:08.489Z,26.88
2023-01-20T23:38:34.971Z,27.88
2023-01-20T23:41:02.348Z,28.17
2023-01-20T23:43:30.485Z,27.52
2023-01-20T23:45:58.724Z,27.13
2023-01-20T23:48:25.383Z,27.30
2023-01-20T23:50:52.227Z,24.58
2023-01-20T23:53:19.430Z,26.30
2023-01-20T23:55:46.010Z,26.23
2023-01-20T23:58:12.543Z,24.40
